createdAt,value
2024-02-19T00:00:58.655Z,99255.16
2024-02-19T00:03:26.569Z,99243.31
2024-02-19T00:05:54.870Z,99233.09
2024-02-19T00:08:23.167Z,99233.16
2024-02-19T00:10:52.728Z,99223.81
2024-02-19T00:13:20.704Z,99208.56
2024-02-19T00:15:50.001Z,99211.13
2024-02-19T00:18:17.973Z,99204.41
2024-02-19T00:20:45.902Z,99200.94
2024-02-19T00:23:13.701Z,99185.63
2024-02-19T00:25:41.734Z,99169.59
2024-02-19T00:28:11.718Z,99155.19
2024-02-19T00:30:39.637Z,99137.41
2024-02-19T00:33:09.590Z,99135.75
2024-02-19T00:35:37.488Z,99130.72
2024-02-19T00:38:05.316Z,99120.53
2024-02-19T00:40:33.129Z,99112.03
2024-02-19T00:43:01.175Z,99106.97
2024-02-19T00:45:29.045Z,99091.72
2024-02-19T00:47:56.832Z,99090.94
2024-02-19T00:50:26.063Z,99067.19
2024-02-19T00:52:53.847Z,99051.91
2024-02-19T00:55:22.608Z,99035.88
2024-02-19T00:57:50.608Z,99029.09
2024-02-19T01:00:19.107Z,99026.53
2024-02-19T01:02:46.973Z,99013.88
2024-02-19T01:05:14.801Z,99019.00
2024-02-19T01:07:43.902Z,99013.09
2024-02-19T01:10:12.010Z,98995.25
2024-02-19T01:12:39.919Z,98997.81
2024-02-19T01:15:09.032Z,98997.81
2024-02-19T01:17:36.884Z,98979.19
2024-02-19T01:20:05.885Z,98988.53
2024-02-19T01:22:33.699Z,98985.13
2024-02-19T01:25:02.961Z,98975.78
2024-02-19T01:27:30.803Z,98974.94
2024-02-19T01:29:58.577Z,98971.56
2024-02-19T01:32:26.395Z,98978.34
2024-02-19T01:34:54.343Z,98979.19
2024-02-19T01:37:22.710Z,98990.25
2024-02-19T01:39:50.553Z,98981.78
2024-02-19T01:42:19.710Z,98978.41
2024-02-19T01:44:47.613Z,98974.94
2024-02-19T01:47:15.813Z,98986.03
2024-02-19T01:49:45.028Z,98982.56
2024-02-19T01:52:13.339Z,98988.59
2024-02-19T01:54:41.744Z,98974.13
2024-02-19T01:57:10.158Z,98975.88
2024-02-19T01:59:40.178Z,98978.44
2024-02-19T02:02:07.977Z,98993.72
2024-02-19T02:04:37.239Z,99010.56
2024-02-19T02:07:05.420Z,99029.97
2024-02-19T02:09:33.577Z,99057.16
2024-02-19T02:12:01.418Z,99081.69
2024-02-19T02:14:29.296Z,99105.47
2024-02-19T02:16:58.417Z,99116.47
2024-02-19T02:19:26.286Z,99126.59
2024-02-19T02:21:54.156Z,99135.09
2024-02-19T02:24:21.969Z,99151.19
2024-02-19T02:26:51.100Z,99160.53
2024-02-19T02:29:18.878Z,99155.41
2024-02-19T02:31:46.691Z,99157.97
2024-02-19T02:34:14.688Z,99151.25
2024-02-19T02:36:43.229Z,99142.72
2024-02-19T02:39:11.038Z,99134.25
2024-02-19T02:41:38.871Z,99135.13
2024-02-19T02:44:08.511Z,99130.03
2024-02-19T02:46:36.370Z,99116.53
2024-02-19T02:49:04.627Z,99117.34
2024-02-19T02:51:32.929Z,99114.00
2024-02-19T02:54:00.756Z,99121.63
2024-02-19T02:56:29.164Z,99118.25
2024-02-19T02:58:57.081Z,99112.31
2024-02-19T03:01:29.914Z,99103.78
2024-02-19T03:03:57.840Z,99101.28
2024-02-19T03:06:26.822Z,99099.63
2024-02-19T03:08:54.828Z,99095.38
2024-02-19T03:11:23.102Z,99098.78
2024-02-19T03:13:51.248Z,99089.44
2024-02-19T03:16:19.296Z,99082.66
2024-02-19T03:18:49.016Z,99081.88
2024-02-19T03:21:18.628Z,99065.75
2024-02-19T03:23:51.269Z,99073.44
2024-02-19T03:26:34.547Z,99065.81
2024-02-19T03:29:13.014Z,99063.28
2024-02-19T03:31:40.965Z,99062.41
2024-02-19T03:34:10.357Z,99058.16
2024-02-19T03:36:38.787Z,99067.53
2024-02-19T03:39:06.612Z,99056.44
2024-02-19T03:41:34.474Z,99054.81
2024-02-19T03:44:02.283Z,99051.41
2024-02-19T03:46:30.139Z,99042.94
2024-02-19T03:48:58.151Z,99048.00
2024-02-19T03:51:27.411Z,99048.91
2024-02-19T03:53:55.542Z,99029.47
2024-02-19T03:56:23.431Z,99009.16
2024-02-19T03:58:51.291Z,98987.91
2024-02-19T04:01:19.397Z,98979.53
2024-02-19T04:03:47.440Z,98957.44
2024-02-19T04:06:15.334Z,98952.44
2024-02-19T04:08:44.579Z,98932.94
2024-02-19T04:11:16.022Z,98927.88
2024-02-19T04:13:42.895Z,98930.44
2024-02-19T04:16:11.219Z,98933.84
2024-02-19T04:18:39.239Z,98938.91
2024-02-19T04:21:07.824Z,98926.16
2024-02-19T04:23:35.606Z,98917.75
2024-02-19T04:26:04.796Z,98910.13
2024-02-19T04:28:32.618Z,98893.25
2024-02-19T04:31:00.513Z,98876.28
2024-02-19T04:33:28.475Z,98865.31
2024-02-19T04:35:56.438Z,98854.34
2024-02-19T04:38:24.474Z,98847.56
2024-02-19T04:40:52.346Z,98850.13
2024-02-19T04:43:21.557Z,98839.13
2024-02-19T04:45:49.482Z,98836.59
2024-02-19T04:48:17.348Z,98835.75
2024-02-19T04:50:45.237Z,98832.34
2024-02-19T04:53:19.063Z,98837.53
2024-02-19T04:55:47.290Z,98822.19
2024-02-19T04:58:15.247Z,98828.13
2024-02-19T05:00:44.624Z,98818.84
2024-02-19T05:03:14.773Z,98807.88
2024-02-19T05:05:44.098Z,98790.09
2024-02-19T05:08:11.950Z,98778.34
2024-02-19T05:10:40.056Z,98755.47
2024-02-19T05:13:08.668Z,98746.16
2024-02-19T05:15:36.585Z,98747.00
2024-02-19T05:18:06.536Z,98747.06
2024-02-19T05:20:34.827Z,98742.81
2024-02-19T05:23:03.023Z,98740.28
2024-02-19T05:25:30.889Z,98736.06
2024-02-19T05:27:59.764Z,98732.66
2024-02-19T05:30:28.350Z,98731.81
2024-02-19T05:32:56.375Z,98737.78
2024-02-19T05:35:26.314Z,98720.84
2024-02-19T05:37:54.677Z,98718.28
2024-02-19T05:40:22.617Z,98715.81
2024-02-19T05:42:50.600Z,98714.13
2024-02-19T05:45:18.706Z,98701.41
2024-02-19T05:47:47.765Z,98703.16
2024-02-19T05:50:15.804Z,98698.88
2024-02-19T05:52:44.962Z,98688.72
2024-02-19T05:55:12.819Z,98705.72
2024-02-19T05:57:40.828Z,98707.41
2024-02-19T06:00:15.350Z,98698.88
2024-02-19T06:02:43.842Z,98692.09
2024-02-19T06:05:12.913Z,98696.31
2024-02-19T06:07:40.805Z,98693.81
2024-02-19T06:10:11.239Z,98700.59
2024-02-19T06:12:39.102Z,98702.34
2024-02-19T06:15:07.617Z,98698.13
2024-02-19T06:17:35.587Z,98702.34
2024-02-19T06:20:03.617Z,98692.94
2024-02-19T06:22:31.499Z,98698.13
2024-02-19T06:24:59.623Z,98697.22
2024-02-19T06:27:28.886Z,98699.78
2024-02-19T06:29:56.716Z,98703.16
2024-02-19T06:32:24.504Z,98704.88
2024-02-19T06:34:52.466Z,98703.16
2024-02-19T06:37:20.395Z,98707.44
2024-02-19T06:39:48.367Z,98701.44
2024-02-19T06:42:16.346Z,98701.50
2024-02-19T06:44:45.618Z,98704.06
2024-02-19T06:47:14.373Z,98712.53
2024-02-19T06:49:42.487Z,98727.75
2024-02-19T06:52:10.358Z,98734.47
2024-02-19T06:54:38.185Z,98739.53
2024-02-19T06:57:06.279Z,98743.81
2024-02-19T06:59:34.094Z,98739.53
2024-02-19T07:02:06.983Z,98744.66
2024-02-19T07:04:38.337Z,98740.41
2024-02-19T07:07:10.040Z,98744.66
2024-02-19T07:09:38.151Z,98737.88
2024-02-19T07:12:06.928Z,98737.88
2024-02-19T07:14:34.804Z,98741.25
2024-02-19T07:17:04.069Z,98746.38
2024-02-19T07:19:32.054Z,98750.56
2024-02-19T07:22:00.004Z,98760.75
2024-02-19T07:24:29.323Z,98757.34
2024-02-19T07:26:58.536Z,98759.06
2024-02-19T07:29:27.105Z,98764.13
2024-02-19T07:31:55.030Z,98763.25
2024-02-19T07:34:24.451Z,98770.03
2024-02-19T07:36:53.881Z,98784.47
2024-02-19T07:39:21.837Z,98788.72
2024-02-19T07:41:49.722Z,98790.38
2024-02-19T07:44:17.696Z,98811.53
2024-02-19T07:46:45.581Z,98812.38
2024-02-19T07:49:13.557Z,98824.25
2024-02-19T07:51:42.821Z,98825.91
2024-02-19T07:54:10.664Z,98829.25
2024-02-19T07:56:38.552Z,98852.19
2024-02-19T07:59:06.409Z,98848.81
2024-02-19T08:01:34.487Z,98856.41
2024-02-19T08:04:02.763Z,98864.03
2024-02-19T08:06:30.807Z,98865.69
2024-02-19T08:09:00.659Z,98880.09
2024-02-19T08:11:28.957Z,98886.03
2024-02-19T08:13:56.915Z,98887.69
2024-02-19T08:16:27.971Z,98892.75
2024-02-19T08:18:56.450Z,98906.28
2024-02-19T08:21:25.536Z,98918.13
2024-02-19T08:23:53.584Z,98935.94
2024-02-19T08:26:23.316Z,98933.38
2024-02-19T08:28:51.149Z,98953.78
2024-02-19T08:31:19.148Z,98957.09
2024-02-19T08:33:47.234Z,98969.78
2024-02-19T08:36:15.286Z,98979.94
2024-02-19T08:38:45.904Z,98990.06
2024-02-19T08:41:13.896Z,99002.78
2024-02-19T08:43:43.122Z,99014.69
2024-02-19T08:46:11.242Z,99019.75
2024-02-19T08:48:39.347Z,99027.38
2024-02-19T08:51:07.282Z,99028.22
2024-02-19T08:53:35.337Z,99032.41
2024-02-19T08:56:03.190Z,99045.22
2024-02-19T08:58:32.476Z,99051.97
2024-02-19T09:01:02.631Z,99058.75
2024-02-19T09:03:30.716Z,99058.75
2024-02-19T09:05:58.684Z,99061.25
2024-02-19T09:08:26.572Z,99075.63
2024-02-19T09:10:54.891Z,99096.00
2024-02-19T09:13:22.897Z,99095.13
2024-02-19T09:15:50.813Z,99112.06
2024-02-19T09:18:20.314Z,99122.22
2024-02-19T09:20:48.218Z,99141.78
2024-02-19T09:23:17.764Z,99148.53
2024-02-19T09:25:45.597Z,99167.16
2024-02-19T09:28:13.445Z,99195.16
2024-02-19T09:30:41.378Z,99221.44
2024-02-19T09:33:09.271Z,99227.38
2024-02-19T09:35:39.593Z,99240.91
2024-02-19T09:38:07.533Z,99257.03
2024-02-19T09:40:38.085Z,99268.84
2024-02-19T09:43:07.877Z,99285.81
2024-02-19T09:45:37.353Z,99297.69
2024-02-19T09:48:08.023Z,99311.28
2024-02-19T09:50:39.737Z,99329.06
2024-02-19T09:53:11.832Z,99346.91
2024-02-19T09:55:39.881Z,99364.75
2024-02-19T09:58:08.368Z,99374.91
2024-02-19T10:00:36.604Z,99392.66
2024-02-19T10:03:04.766Z,99414.78
2024-02-19T10:05:32.772Z,99437.69
2024-02-19T10:08:05.520Z,99470.81
2024-02-19T10:10:39.067Z,99495.41
2024-02-19T10:13:07.839Z,99502.19
2024-02-19T10:15:35.794Z,99531.84
2024-02-19T10:18:14.268Z,99554.81
2024-02-19T10:20:45.719Z,99593.00
2024-02-19T10:23:13.592Z,99630.41
2024-02-19T10:25:43.166Z,99665.22
2024-02-19T10:28:11.317Z,99703.50
2024-02-19T10:30:40.917Z,99706.88
2024-02-19T10:33:09.275Z,99728.13
2024-02-19T10:35:37.242Z,99750.22
2024-02-19T10:38:06.047Z,99752.78
2024-02-19T10:40:34.536Z,99756.13
2024-02-19T10:43:06.429Z,99758.72
2024-02-19T10:45:35.534Z,99758.72
2024-02-19T10:48:03.956Z,99745.13
2024-02-19T10:50:33.776Z,99759.59
2024-02-19T10:53:01.719Z,99777.47
2024-02-19T10:55:40.949Z,99778.28
2024-02-19T10:58:25.461Z,99796.13
2024-02-19T11:00:55.159Z,99813.16
2024-02-19T11:03:24.347Z,99827.56
2024-02-19T11:05:53.331Z,99849.69
2024-02-19T11:08:23.046Z,99859.88
2024-02-19T11:10:52.630Z,99850.56
2024-02-19T11:13:26.705Z,99867.56
2024-02-19T11:15:55.323Z,99859.91
2024-02-19T11:18:24.123Z,99870.09
2024-02-19T11:20:52.166Z,99860.75
2024-02-19T11:23:21.380Z,99866.78
2024-02-19T11:25:49.342Z,99869.31
2024-02-19T11:28:17.310Z,99874.44
2024-02-19T11:30:46.827Z,99859.91
2024-02-19T11:33:14.815Z,99852.25
2024-02-19T11:35:45.426Z,99853.97
2024-02-19T11:38:13.372Z,99853.09
2024-02-19T11:40:41.499Z,99858.25
2024-02-19T11:43:09.649Z,99870.16
2024-02-19T11:45:39.100Z,99882.00
2024-02-19T11:48:09.549Z,99905.00
2024-02-19T11:50:37.473Z,99910.94
2024-02-19T11:53:05.947Z,99934.84
2024-02-19T11:55:34.913Z,99932.28
2024-02-19T11:58:03.985Z,99935.69
2024-02-19T12:00:33.515Z,99946.75
2024-02-19T12:03:03.784Z,99950.16
2024-02-19T12:05:33.324Z,99964.53
2024-02-19T12:08:01.404Z,99988.44
2024-02-19T12:10:29.752Z,99997.78
2024-02-19T12:12:58.856Z,100002.03
2024-02-19T12:15:26.911Z,100006.28
2024-02-19T12:17:54.862Z,100010.59
2024-02-19T12:20:22.927Z,99991.81
2024-02-19T12:22:52.283Z,99972.25
2024-02-19T12:25:20.343Z,99946.69
2024-02-19T12:27:48.724Z,99944.13
2024-02-19T12:30:16.962Z,99933.91
2024-02-19T12:32:47.026Z,99923.72
2024-02-19T12:35:15.952Z,99928.81
2024-02-19T12:37:43.935Z,99930.50
2024-02-19T12:40:14.585Z,99950.94
2024-02-19T12:42:43.021Z,99950.09
2024-02-19T12:45:11.220Z,99958.66
2024-02-19T12:47:39.214Z,99958.59
2024-02-19T12:50:09.402Z,99971.34
2024-02-19T12:52:37.583Z,99982.47
2024-02-19T12:55:06.618Z,100006.31
2024-02-19T12:57:35.823Z,100021.66
2024-02-19T13:00:08.317Z,100014.84
2024-02-19T13:02:36.786Z,100022.50
2024-02-19T13:05:05.017Z,100037.84
2024-02-19T13:07:33.401Z,100045.50
2024-02-19T13:10:01.373Z,100061.59
2024-02-19T13:12:29.863Z,100074.44
2024-02-19T13:15:00.365Z,100076.13
2024-02-19T13:17:35.793Z,100087.22
2024-02-19T13:20:09.805Z,100099.97
2024-02-19T13:22:37.895Z,100088.94
2024-02-19T13:25:06.702Z,100084.69
2024-02-19T13:27:34.569Z,100081.28
2024-02-19T13:30:03.796Z,100077.81
2024-02-19T13:32:31.759Z,100066.72
2024-02-19T13:34:59.708Z,100063.31
2024-02-19T13:37:27.669Z,100038.66
2024-02-19T13:39:55.544Z,100016.50
2024-02-19T13:42:25.029Z,100011.44
2024-02-19T13:44:52.855Z,99980.75
2024-02-19T13:47:22.492Z,99962.91
2024-02-19T13:49:51.026Z,99953.50
2024-02-19T13:52:19.009Z,99961.19
2024-02-19T13:54:47.990Z,99949.25
2024-02-19T13:57:18.121Z,99967.16
2024-02-19T13:59:45.959Z,99962.91
2024-02-19T14:02:14.614Z,99970.56
2024-02-19T14:04:44.138Z,99970.53
2024-02-19T14:07:12.882Z,99969.72
2024-02-19T14:09:42.600Z,99966.28
2024-02-19T14:12:10.765Z,99965.47
2024-02-19T14:14:38.561Z,99969.72
2024-02-19T14:17:11.100Z,99965.47
2024-02-19T14:19:40.779Z,99969.72
2024-02-19T14:22:10.791Z,99963.75
2024-02-19T14:24:38.650Z,99964.59
2024-02-19T14:27:08.474Z,99960.34
2024-02-19T14:29:36.378Z,99966.38
2024-02-19T14:32:05.167Z,99974.81
2024-02-19T14:34:33.985Z,99977.41
2024-02-19T14:37:02.388Z,99973.16
2024-02-19T14:39:31.938Z,99969.69
2024-02-19T14:42:00.190Z,99970.56
2024-02-19T14:44:28.025Z,99945.94
2024-02-19T14:47:02.366Z,99942.50
2024-02-19T14:49:35.047Z,99933.16
2024-02-19T14:52:03.709Z,99912.72
2024-02-19T14:54:33.460Z,99907.63
2024-02-19T14:57:01.496Z,99901.72
2024-02-19T14:59:29.404Z,99892.28
2024-02-19T15:01:57.543Z,99899.13
2024-02-19T15:04:26.244Z,99893.16
2024-02-19T15:06:56.498Z,99894.06
2024-02-19T15:09:25.007Z,99888.94
2024-02-19T15:11:54.306Z,99896.59
2024-02-19T15:14:22.168Z,99879.53
2024-02-19T15:16:50.151Z,99895.72
2024-02-19T15:19:18.510Z,99893.19
2024-02-19T15:21:46.617Z,99888.03
2024-02-19T15:24:14.816Z,99907.69
2024-02-19T15:26:42.915Z,99901.72
2024-02-19T15:29:13.132Z,99877.88
2024-02-19T15:31:41.315Z,99873.66
2024-02-19T15:34:09.529Z,99881.28
2024-02-19T15:36:37.479Z,99893.19
2024-02-19T15:39:05.554Z,99888.94
2024-02-19T15:41:33.762Z,99891.50
2024-02-19T15:44:05.056Z,99906.84
2024-02-19T15:46:34.505Z,99906.00
2024-02-19T15:49:02.600Z,99905.13
2024-02-19T15:51:31.065Z,99892.34
2024-02-19T15:53:58.974Z,99888.94
2024-02-19T15:56:26.825Z,99881.28
2024-02-19T15:58:55.639Z,99884.72
2024-02-19T16:01:23.696Z,99872.78
2024-02-19T16:03:54.171Z,99871.94
2024-02-19T16:06:28.767Z,99879.59
2024-02-19T16:08:57.658Z,99873.63
2024-02-19T16:11:25.451Z,99890.72
2024-02-19T16:13:53.507Z,99887.25
2024-02-19T16:16:21.851Z,99893.22
2024-02-19T16:18:50.034Z,99873.66
2024-02-19T16:21:19.378Z,99870.25
2024-02-19T16:23:47.225Z,99863.41
2024-02-19T16:26:15.707Z,99857.47
2024-02-19T16:28:43.593Z,99843.91
2024-02-19T16:31:12.741Z,99832.78
2024-02-19T16:33:42.242Z,99833.69
2024-02-19T16:36:10.796Z,99832.81
2024-02-19T16:38:42.244Z,99829.41
2024-02-19T16:41:10.582Z,99822.59
2024-02-19T16:43:38.687Z,99811.53
2024-02-19T16:46:06.786Z,99799.59
2024-02-19T16:48:39.881Z,99802.22
2024-02-19T16:51:08.613Z,99797.03
2024-02-19T16:53:36.642Z,99799.59
2024-02-19T16:56:06.835Z,99797.06
2024-02-19T16:58:35.757Z,99796.22
2024-02-19T17:01:06.238Z,99788.63
2024-02-19T17:03:34.543Z,99790.34
2024-02-19T17:06:02.917Z,99775.03
2024-02-19T17:08:31.201Z,99765.69
2024-02-19T17:10:59.232Z,99757.19
2024-02-19T17:13:28.684Z,99752.91
2024-02-19T17:15:56.914Z,99761.44
2024-02-19T17:18:24.919Z,99763.16
2024-02-19T17:20:52.848Z,99760.59
2024-02-19T17:23:21.027Z,99761.44
2024-02-19T17:25:48.926Z,99769.09
2024-02-19T17:28:18.369Z,99759.75
2024-02-19T17:30:47.872Z,99754.63
2024-02-19T17:33:16.091Z,99752.91
2024-02-19T17:35:45.846Z,99742.75
2024-02-19T17:38:15.219Z,99752.06
2024-02-19T17:40:43.761Z,99771.59
2024-02-19T17:43:12.915Z,99773.28
2024-02-19T17:45:41.573Z,99779.25
2024-02-19T17:48:14.148Z,99783.56
2024-02-19T17:50:43.047Z,99773.34
2024-02-19T17:53:11.080Z,99764.00
2024-02-19T17:55:40.582Z,99763.16
2024-02-19T17:58:08.717Z,99747.81
2024-02-19T18:00:36.635Z,99741.91
2024-02-19T18:03:05.088Z,99735.94
2024-02-19T18:05:34.441Z,99741.97
2024-02-19T18:08:02.873Z,99733.41
2024-02-19T18:10:31.116Z,99723.16
2024-02-19T18:12:59.130Z,99718.03
2024-02-19T18:15:27.146Z,99718.09
2024-02-19T18:17:57.219Z,99718.97
2024-02-19T18:20:25.146Z,99708.75
2024-02-19T18:22:55.180Z,99703.66
2024-02-19T18:25:23.640Z,99699.44
2024-02-19T18:27:52.445Z,99690.06
2024-02-19T18:30:20.363Z,99679.84
2024-02-19T18:32:48.263Z,99685.81
2024-02-19T18:35:16.338Z,99684.16
2024-02-19T18:37:44.228Z,99688.38
2024-02-19T18:40:13.709Z,99684.97
2024-02-19T18:42:44.806Z,99683.31
2024-02-19T18:45:12.814Z,99667.09
2024-02-19T18:47:43.822Z,99665.47
2024-02-19T18:50:12.783Z,99657.81
2024-02-19T18:52:40.767Z,99643.34
2024-02-19T18:55:09.437Z,99638.28
2024-02-19T18:57:38.794Z,99632.31
2024-02-19T19:00:10.237Z,99622.94
2024-02-19T19:02:38.472Z,99630.63
2024-02-19T19:05:07.046Z,99636.59
2024-02-19T19:07:35.223Z,99631.47
2024-02-19T19:10:04.163Z,99620.44
2024-02-19T19:12:32.572Z,99614.50
2024-02-19T19:15:01.884Z,99611.97
2024-02-19T19:17:30.441Z,99609.41
2024-02-19T19:19:58.546Z,99613.63
2024-02-19T19:22:26.605Z,99617.06
2024-02-19T19:24:55.124Z,99615.38
2024-02-19T19:27:24.735Z,99609.41
2024-02-19T19:29:52.611Z,99609.41
2024-02-19T19:32:26.854Z,99600.06
2024-02-19T19:34:55.251Z,99591.59
2024-02-19T19:37:24.628Z,99583.13
2024-02-19T19:39:52.756Z,99572.91
2024-02-19T19:42:21.484Z,99570.41
2024-02-19T19:44:52.193Z,99561.84
2024-02-19T19:47:21.948Z,99553.41
2024-02-19T19:49:49.898Z,99543.19
2024-02-19T19:52:19.567Z,99534.75
2024-02-19T19:54:47.936Z,99535.59
2024-02-19T19:57:15.892Z,99533.06
2024-02-19T19:59:48.765Z,99526.19
2024-02-19T20:02:17.158Z,99526.25
2024-02-19T20:04:49.091Z,99534.78
2024-02-19T20:07:17.035Z,99523.69
2024-02-19T20:09:47.192Z,99516.09
2024-02-19T20:12:16.127Z,99506.75
2024-02-19T20:14:43.994Z,99497.38
2024-02-19T20:17:12.540Z,99496.47
2024-02-19T20:19:40.706Z,99502.50
2024-02-19T20:22:11.052Z,99503.34
2024-02-19T20:24:38.950Z,99505.06
2024-02-19T20:27:06.784Z,99510.19
2024-02-19T20:29:35.447Z,99515.31
2024-02-19T20:32:05.544Z,99509.31
2024-02-19T20:34:34.784Z,99506.78
2024-02-19T20:37:02.780Z,99509.31
2024-02-19T20:39:32.639Z,99521.28
2024-02-19T20:42:00.528Z,99512.75
2024-02-19T20:44:28.528Z,99510.19
2024-02-19T20:46:56.650Z,99511.94
2024-02-19T20:49:24.745Z,99505.06
2024-02-19T20:51:52.648Z,99496.59
2024-02-19T20:54:20.538Z,99495.88
2024-02-19T20:56:49.754Z,99485.59
2024-02-19T20:59:17.748Z,99475.41
2024-02-19T21:01:47.561Z,99464.38
2024-02-19T21:04:15.640Z,99461.81
2024-02-19T21:06:43.532Z,99462.69
2024-02-19T21:09:11.325Z,99453.34
2024-02-19T21:11:39.222Z,99448.28
2024-02-19T21:14:09.926Z,99443.16
2024-02-19T21:16:37.840Z,99444.88
2024-02-19T21:19:06.568Z,99444.88
2024-02-19T21:21:35.451Z,99445.75
2024-02-19T21:24:03.989Z,99444.88
2024-02-19T21:26:32.373Z,99444.88
2024-02-19T21:29:00.395Z,99448.28
2024-02-19T21:31:29.706Z,99444.88
2024-02-19T21:33:58.369Z,99439.78
2024-02-19T21:36:26.428Z,99438.13
2024-02-19T21:38:55.812Z,99429.66
2024-02-19T21:41:23.864Z,99430.47
2024-02-19T21:43:51.702Z,99428.78
2024-02-19T21:46:19.568Z,99442.47
2024-02-19T21:48:49.130Z,99438.19
2024-02-19T21:51:17.182Z,99438.13
2024-02-19T21:53:45.131Z,99432.22
2024-02-19T21:56:12.934Z,99431.34
2024-02-19T21:58:40.942Z,99431.41
2024-02-19T22:01:08.949Z,99440.78
2024-02-19T22:03:36.845Z,99429.69
2024-02-19T22:06:06.844Z,99437.38
2024-02-19T22:08:34.764Z,99430.50
2024-02-19T22:11:03.697Z,99426.28
2024-02-19T22:13:31.690Z,99431.41
2024-02-19T22:15:59.700Z,99430.56
2024-02-19T22:18:27.730Z,99425.44
2024-02-19T22:20:55.670Z,99414.34
2024-02-19T22:23:24.831Z,99424.66
2024-02-19T22:25:52.672Z,99416.13
2024-02-19T22:28:20.595Z,99412.78
2024-02-19T22:30:48.687Z,99402.53
2024-02-19T22:33:16.663Z,99405.09
2024-02-19T22:35:44.632Z,99393.16
2024-02-19T22:38:12.497Z,99388.94
2024-02-19T22:40:42.888Z,99397.47
2024-02-19T22:43:11.425Z,99393.22
2024-02-19T22:45:41.143Z,99396.56
2024-02-19T22:48:10.853Z,99398.31
2024-02-19T22:50:39.302Z,99401.69
2024-02-19T22:53:07.438Z,99409.34
2024-02-19T22:55:35.372Z,99403.38
2024-02-19T22:58:04.772Z,99405.09
2024-02-19T23:00:37.096Z,99405.09
2024-02-19T23:06:36.924Z,99400.88
2024-02-19T23:09:07.208Z,99410.28
2024-02-19T23:11:35.039Z,99403.44
2024-02-19T23:14:02.929Z,99403.44
2024-02-19T23:16:30.728Z,99406.00
2024-02-19T23:18:58.907Z,99404.31
2024-02-19T23:21:26.784Z,99406.84
2024-02-19T23:23:56.031Z,99404.28
2024-02-19T23:26:23.810Z,99404.28
2024-02-19T23:28:51.621Z,99409.41
2024-02-19T23:31:19.530Z,99411.97
2024-02-19T23:33:47.647Z,99418.00
2024-02-19T23:36:15.585Z,99406.84
2024-02-19T23:38:44.069Z,99406.88
2024-02-19T23:41:13.616Z,99395.75
2024-02-19T23:43:43.274Z,99396.69
2024-02-19T23:46:11.264Z,99403.50
2024-02-19T23:48:39.156Z,99409.41
2024-02-19T23:51:07.669Z,99405.22
2024-02-19T23:53:35.524Z,99404.31
2024-02-19T23:56:03.956Z,99404.38
2024-02-19T23:58:33.217Z,99404.31
